Wetterdaten: Dienstag, 21.04.2015
Datum Zeit Temp. A. Feuchte A. Luftdruck Regen Wind Richtung Richtung Sonnenschein ET UV Solar Taupunkt Windchill Windben Empfang
21.04.2015 00:00 7,7 C 68 % 1024,2 hPa 0,0 l/m 0,0 km/h (0 Bft) S 186 0 min 0,000 mm 0,0 UV-I 0 W/m 2,2 C 7,7 C 0,0 km/h (0 Bft) 0,00 %
21.04.2015 00:15 7,6 C 69 % 1024,4 hPa 0,0 l/m 0,0 km/h (0 Bft) SW 219 0 min 0,000 mm 0,0 UV-I 0 W/m 2,3 C 7,6 C 0,0 km/h (0 Bft) 0,00 %
21.04.2015 00:30 7,4 C 69 % 1024,4 hPa 0,0 l/m 0,0 km/h (0 Bft) S 176 0 min 0,000 mm 0,0 UV-I 0 W/m 2,1 C 7,4 C 0,0 km/h (0 Bft) 0,00 %
21.04.2015 00:45 7,2 C 70 % 1024,5 hPa 0,0 l/m 0,0 km/h (0 Bft) S 184 0 min 0,000 mm 0,0 UV-I 0 W/m 2,1 C 7,2 C 0,0 km/h (0 Bft) 0,00 %
21.04.2015 01:00 7,1 C 71 % 1024,4 hPa 0,0 l/m 0,0 km/h (0 Bft) SW 216 0 min 0,000 mm 0,0 UV-I 0 W/m 2,2 C 7,1 C 0,0 km/h (0 Bft) 0,00 %
21.04.2015 01:15 7,0 C 71 % 1024,5 hPa 0,0 l/m 0,0 km/h (0 Bft) S 174 0 min 0,000 mm 0,0 UV-I 0 W/m 2,1 C 7,0 C 0,0 km/h (0 Bft) 0,00 %
21.04.2015 01:30 6,8 C 71 % 1024,6 hPa 0,0 l/m 0,0 km/h (0 Bft) S 182 0 min 0,000 mm 0,0 UV-I 0 W/m 1,9 C 6,8 C 0,0 km/h (0 Bft) 0,00 %
21.04.2015 01:45 6,7 C 72 % 1024,4 hPa 0,0 l/m 0,0 km/h (0 Bft) S-SW 193 0 min 0,000 mm 0,0 UV-I 0 W/m 2,0 C 6,7 C 0,0 km/h (0 Bft) 0,00 %
21.04.2015 02:00 6,4 C 75 % 1024,6 hPa 0,0 l/m 0,0 km/h (0 Bft) S 184 0 min 0,000 mm 0,0 UV-I 0 W/m 2,3 C 6,4 C 0,0 km/h (0 Bft) 0,00 %
21.04.2015 02:15 6,2 C 75 % 1024,5 hPa 0,0 l/m 0,0 km/h (0 Bft) S 186 0 min 0,000 mm 0,0 UV-I 0 W/m 2,1 C 6,2 C 0,0 km/h (0 Bft) 0,00 %
21.04.2015 02:30 6,1 C 77 % 1024,8 hPa 0,0 l/m 0,0 km/h (0 Bft) S 184 0 min 0,000 mm 0,0 UV-I 0 W/m 2,4 C 6,1 C 0,0 km/h (0 Bft) 0,00 %
21.04.2015 02:45 5,8 C 78 % 1025,0 hPa 0,0 l/m 0,0 km/h (0 Bft) S 187 0 min 0,000 mm 0,0 UV-I 0 W/m 2,3 C 5,8 C 0,0 km/h (0 Bft) 0,00 %
21.04.2015 03:00 5,7 C 78 % 1024,9 hPa 0,0 l/m 0,0 km/h (0 Bft) S-SW 192 0 min 0,000 mm 0,0 UV-I 0 W/m 2,2 C 5,7 C 0,0 km/h (0 Bft) 0,00 %
21.04.2015 03:15 5,6 C 79 % 1025,0 hPa 0,0 l/m 0,0 km/h (0 Bft) S 172 0 min 0,000 mm 0,0 UV-I 0 W/m 2,3 C 5,6 C 0,0 km/h (0 Bft) 0,00 %
21.04.2015 03:30 5,6 C 78 % 1025,2 hPa 0,0 l/m 0,0 km/h (0 Bft) S-SW 196 0 min 0,000 mm 0,0 UV-I 0 W/m 2,1 C 5,6 C 0,0 km/h (0 Bft) 0,00 %
21.04.2015 03:45 5,6 C 78 % 1025,1 hPa 0,0 l/m 0,0 km/h (0 Bft) S 191 0 min 0,000 mm 0,0 UV-I 0 W/m 2,1 C 5,6 C 0,0 km/h (0 Bft) 0,00 %
21.04.2015 04:00 5,5 C 80 % 1025,1 hPa 0,0 l/m 0,0 km/h (0 Bft) S 185 0 min 0,000 mm 0,0 UV-I 0 W/m 2,3 C 5,5 C 0,0 km/h (0 Bft) 0,00 %
21.04.2015 04:15 5,1 C 81 % 1025,4 hPa 0,0 l/m 0,0 km/h (0 Bft) S 180 0 min 0,000 mm 0,0 UV-I 0 W/m 2,1 C 5,1 C 0,0 km/h (0 Bft) 0,00 %
21.04.2015 04:30 4,9 C 82 % 1025,4 hPa 0,0 l/m 0,0 km/h (0 Bft) S 181 0 min 0,000 mm 0,0 UV-I 0 W/m 2,1 C 4,9 C 0,0 km/h (0 Bft) 0,00 %
21.04.2015 04:45 4,8 C 82 % 1025,7 hPa 0,0 l/m 0,0 km/h (0 Bft) S-SW 199 0 min 0,000 mm 0,0 UV-I 0 W/m 2,0 C 4,8 C 0,0 km/h (0 Bft) 0,00 %
21.04.2015 05:00 4,7 C 82 % 1025,8 hPa 0,0 l/m 0,0 km/h (0 Bft) S 174 0 min 0,000 mm 0,0 UV-I 0 W/m 1,9 C 4,7 C 0,0 km/h (0 Bft) 0,00 %
21.04.2015 05:15 4,4 C 85 % 1025,8 hPa 0,0 l/m 0,0 km/h (0 Bft) S 191 0 min 0,000 mm 0,0 UV-I 0 W/m 2,1 C 4,4 C 0,0 km/h (0 Bft) 0,00 %
21.04.2015 05:30 4,1 C 86 % 1026,2 hPa 0,0 l/m 0,0 km/h (0 Bft) SO 137 0 min 0,000 mm 0,0 UV-I 0 W/m 2,0 C 4,1 C 0,0 km/h (0 Bft) 0,00 %
21.04.2015 05:45 4,3 C 86 % 1026,4 hPa 0,0 l/m 0,0 km/h (0 Bft) S 183 0 min 0,000 mm 0,0 UV-I 0 W/m 2,2 C 4,3 C 0,0 km/h (0 Bft) 0,00 %
21.04.2015 06:00 4,3 C 86 % 1026,4 hPa 0,0 l/m 0,0 km/h (0 Bft) S 185 0 min 0,000 mm 0,0 UV-I 0 W/m 2,2 C 4,3 C 0,0 km/h (0 Bft) 0,00 %
21.04.2015 06:15 4,4 C 84 % 1026,5 hPa 0,0 l/m 0,0 km/h (0 Bft) S 174 15 min 0,000 mm 0,0 UV-I 11 W/m 1,9 C 4,4 C 0,0 km/h (0 Bft) 0,00 %
21.04.2015 06:30 4,6 C 84 % 1027,0 hPa 0,0 l/m 0,0 km/h (0 Bft) S 177 15 min 0,000 mm 0,0 UV-I 73 W/m 2,1 C 4,6 C 0,0 km/h (0 Bft) 0,00 %
21.04.2015 06:45 5,7 C 80 % 1027,0 hPa 0,0 l/m 0,0 km/h (0 Bft) S 189 15 min 0,000 mm 0,0 UV-I 121 W/m 2,5 C 5,7 C 0,0 km/h (0 Bft) 0,00 %
21.04.2015 07:00 7,4 C 72 % 1026,5 hPa 0,0 l/m 0,0 km/h (0 Bft) SW 217 15 min 0,000 mm 1,0 UV-I 174 W/m 2,7 C 7,4 C 0,0 km/h (0 Bft) 0,00 %
21.04.2015 07:15 8,0 C 68 % 1026,3 hPa 0,0 l/m 0,0 km/h (0 Bft) S-SW 192 15 min 0,000 mm 1,0 UV-I 196 W/m 2,5 C 8,0 C 0,0 km/h (0 Bft) 0,00 %
21.04.2015 07:30 8,7 C 67 % 1025,0 hPa 0,0 l/m 0,0 km/h (0 Bft) W-NW 296 15 min 0,000 mm 1,0 UV-I 201 W/m 2,9 C 8,7 C 0,0 km/h (0 Bft) 0,00 %
21.04.2015 07:45 9,5 C 65 % 1025,1 hPa 0,0 l/m 0,7 km/h (0 Bft) SW 228 15 min 0,000 mm 1,0 UV-I 203 W/m 3,3 C 9,5 C 4,0 km/h (1 Bft) 0,00 %
21.04.2015 08:00 10,0 C 64 % 1024,5 hPa 0,0 l/m 1,8 km/h (1 Bft) S-SW 199 15 min 0,000 mm 1,0 UV-I 210 W/m 3,5 C 10,0 C 4,0 km/h (1 Bft) 0,00 %
21.04.2015 08:15 10,3 C 63 % 1025,2 hPa 0,0 l/m 2,9 km/h (1 Bft) SW 230 15 min 0,000 mm 1,0 UV-I 218 W/m 3,6 C 10,3 C 4,0 km/h (1 Bft) 0,00 %
21.04.2015 08:30 10,9 C 60 % 1025,2 hPa 0,0 l/m 6,5 km/h (2 Bft) W 278 15 min 0,000 mm 2,0 UV-I 235 W/m 3,4 C 10,9 C 7,9 km/h (2 Bft) 0,00 %
21.04.2015 08:45 11,4 C 59 % 1024,9 hPa 0,0 l/m 7,9 km/h (2 Bft) S-SW 206 15 min 0,000 mm 2,0 UV-I 255 W/m 3,7 C 10,4 C 11,9 km/h (2 Bft) 0,00 %
21.04.2015 09:00 11,9 C 58 % 1025,0 hPa 0,0 l/m 0,0 km/h (0 Bft) S-SW 194 15 min 0,000 mm 2,0 UV-I 276 W/m 3,9 C 11,9 C 0,0 km/h (0 Bft) 0,00 %
21.04.2015 09:15 12,3 C 55 % 1024,9 hPa 0,0 l/m 2,2 km/h (1 Bft) SW 216 15 min 0,000 mm 2,0 UV-I 291 W/m 3,5 C 12,3 C 4,0 km/h (1 Bft) 0,00 %
21.04.2015 09:30 13,0 C 57 % 1024,9 hPa 0,0 l/m 0,0 km/h (0 Bft) W-SW 256 15 min 0,000 mm 2,0 UV-I 319 W/m 4,7 C 13,0 C 0,0 km/h (0 Bft) 0,00 %
21.04.2015 09:45 13,4 C 54 % 1024,5 hPa 0,0 l/m 9,0 km/h (2 Bft) W-SW 256 15 min 0,000 mm 2,0 UV-I 349 W/m 4,3 C 11,9 C 11,9 km/h (2 Bft) 0,00 %
21.04.2015 10:00 13,2 C 55 % 1024,5 hPa 0,0 l/m 4,7 km/h (1 Bft) W-SW 255 15 min 0,000 mm 3,0 UV-I 363 W/m 4,4 C 13,2 C 7,9 km/h (2 Bft) 0,00 %
21.04.2015 10:15 14,2 C 53 % 1024,2 hPa 0,0 l/m 0,0 km/h (0 Bft) S 177 15 min 0,000 mm 3,0 UV-I 404 W/m 4,8 C 14,2 C 0,0 km/h (0 Bft) 0,00 %
21.04.2015 10:30 14,5 C 53 % 1024,3 hPa 0,0 l/m 2,2 km/h (1 Bft) W-SW 256 15 min 0,000 mm 4,0 UV-I 435 W/m 5,0 C 14,5 C 4,0 km/h (1 Bft) 0,00 %
21.04.2015 10:45 14,5 C 53 % 1024,3 hPa 0,0 l/m 0,0 km/h (0 Bft) W-SW 255 15 min 0,000 mm 4,0 UV-I 473 W/m 5,0 C 14,5 C 0,0 km/h (0 Bft) 0,00 %
21.04.2015 11:00 15,0 C 51 % 1024,0 hPa 0,0 l/m 0,0 km/h (0 Bft) S 185 15 min 0,000 mm 4,0 UV-I 503 W/m 4,9 C 15,0 C 0,0 km/h (0 Bft) 0,00 %
21.04.2015 11:15 15,6 C 46 % 1024,0 hPa 0,0 l/m 11,9 km/h (2 Bft) W-SW 256 15 min 0,000 mm 4,0 UV-I 549 W/m 4,0 C 13,0 C 15,8 km/h (3 Bft) 0,00 %
21.04.2015 11:30 15,5 C 49 % 1023,8 hPa 0,0 l/m 4,3 km/h (1 Bft) W 279 15 min 0,000 mm 5,0 UV-I 574 W/m 4,8 C 15,5 C 7,9 km/h (2 Bft) 0,00 %
21.04.2015 11:45 16,0 C 45 % 1023,9 hPa 0,0 l/m 8,3 km/h (2 Bft) N-NW 338 15 min 0,000 mm 5,0 UV-I 607 W/m 4,1 C 15,0 C 11,9 km/h (2 Bft) 0,00 %
21.04.2015 12:00 16,4 C 43 % 1023,8 hPa 0,0 l/m 1,4 km/h (1 Bft) SW 224 15 min 0,000 mm 5,0 UV-I 647 W/m 3,8 C 16,4 C 4,0 km/h (1 Bft) 0,00 %
21.04.2015 12:15 16,6 C 42 % 1023,6 hPa 0,0 l/m 15,5 km/h (3 Bft) W 259 15 min 0,000 mm 5,0 UV-I 680 W/m 3,6 C 13,0 C 19,8 km/h (3 Bft) 0,00 %
21.04.2015 12:30 16,6 C 42 % 1023,7 hPa 0,0 l/m 1,4 km/h (1 Bft) W-SW 244 15 min 0,000 mm 5,0 UV-I 699 W/m 3,6 C 16,6 C 4,0 km/h (1 Bft) 0,00 %
21.04.2015 12:45 17,4 C 39 % 1023,2 hPa 0,0 l/m 7,9 km/h (2 Bft) W-SW 256 15 min 0,000 mm 5,0 UV-I 709 W/m 3,3 C 16,7 C 11,9 km/h (2 Bft) 0,00 %
21.04.2015 13:00 17,0 C 42 % 1023,4 hPa 0,0 l/m 11,9 km/h (2 Bft) NO 53 15 min 0,000 mm 5,0 UV-I 709 W/m 4,0 C 14,6 C 15,8 km/h (3 Bft) 0,00 %
21.04.2015 13:15 17,1 C 42 % 1023,2 hPa 0,0 l/m 6,8 km/h (2 Bft) W-SW 255 15 min 0,000 mm 6,0 UV-I 728 W/m 4,1 C 16,9 C 11,9 km/h (2 Bft) 0,00 %
21.04.2015 13:30 17,2 C 40 % 1023,1 hPa 0,0 l/m 6,8 km/h (2 Bft) W-SW 256 15 min 0,000 mm 5,0 UV-I 732 W/m 3,5 C 17,0 C 11,9 km/h (2 Bft) 0,00 %
21.04.2015 13:45 17,7 C 39 % 1022,9 hPa 0,0 l/m 3,2 km/h (1 Bft) W-NW 289 15 min 0,000 mm 5,0 UV-I 746 W/m 3,6 C 17,7 C 7,9 km/h (2 Bft) 0,00 %
21.04.2015 14:00 17,9 C 40 % 1022,7 hPa 0,0 l/m 3,2 km/h (1 Bft) W-SW 256 15 min 0,000 mm 5,0 UV-I 752 W/m 4,1 C 17,9 C 7,9 km/h (2 Bft) 0,00 %
21.04.2015 14:15 18,3 C 38 % 1022,5 hPa 0,0 l/m 17,3 km/h (3 Bft) W-SW 255 15 min 0,000 mm 5,0 UV-I 770 W/m 3,7 C 14,6 C 19,8 km/h (3 Bft) 0,00 %
21.04.2015 14:30 17,9 C 38 % 1022,2 hPa 0,0 l/m 9,7 km/h (2 Bft) S 190 15 min 0,000 mm 4,0 UV-I 763 W/m 3,4 C 16,4 C 11,9 km/h (2 Bft) 0,00 %
21.04.2015 14:45 18,8 C 38 % 1021,7 hPa 0,0 l/m 5,8 km/h (2 Bft) O-NO 59 15 min 0,000 mm 3,0 UV-I 779 W/m 4,2 C 18,8 C 7,9 km/h (2 Bft) 0,00 %
21.04.2015 15:00 18,4 C 37 % 1021,5 hPa 0,0 l/m 6,5 km/h (2 Bft) S-SW 213 15 min 0,000 mm 2,0 UV-I 765 W/m 3,5 C 18,4 C 7,9 km/h (2 Bft) 0,00 %
21.04.2015 15:15 18,9 C 34 % 1021,2 hPa 0,0 l/m 11,9 km/h (2 Bft) W 276 15 min 0,000 mm 2,0 UV-I 779 W/m 2,7 C 16,8 C 15,8 km/h (3 Bft) 0,00 %
21.04.2015 15:30 19,2 C 34 % 1021,1 hPa 0,0 l/m 9,4 km/h (2 Bft) SW 230 15 min 0,000 mm 2,0 UV-I 766 W/m 3,0 C 18,0 C 15,8 km/h (3 Bft) 0,00 %
21.04.2015 15:45 19,1 C 33 % 1021,1 hPa 0,0 l/m 14,4 km/h (3 Bft) W-SW 255 15 min 0,000 mm 2,0 UV-I 754 W/m 2,5 C 16,3 C 19,8 km/h (3 Bft) 0,00 %
21.04.2015 16:00 19,3 C 33 % 1021,1 hPa 0,0 l/m 5,8 km/h (2 Bft) N-NW 343 15 min 0,000 mm 2,0 UV-I 733 W/m 2,6 C 19,3 C 7,9 km/h (2 Bft) 0,00 %
21.04.2015 16:15 19,4 C 31 % 1020,8 hPa 0,0 l/m 9,0 km/h (2 Bft) W-SW 256 15 min 0,000 mm 2,0 UV-I 736 W/m 1,8 C 18,3 C 11,9 km/h (2 Bft) 0,00 %
21.04.2015 16:30 18,9 C 33 % 1020,9 hPa 0,0 l/m 5,8 km/h (2 Bft) W-SW 255 15 min 0,000 mm 2,0 UV-I 707 W/m 2,3 C 18,9 C 7,9 km/h (2 Bft) 0,00 %
21.04.2015 16:45 19,0 C 32 % 1020,6 hPa 0,0 l/m 6,5 km/h (2 Bft) W-NW 290 15 min 0,000 mm 2,0 UV-I 693 W/m 1,9 C 19,0 C 7,9 km/h (2 Bft) 0,00 %
21.04.2015 17:00 19,0 C 31 % 1020,5 hPa 0,0 l/m 5,4 km/h (1 Bft) W 260 15 min 0,000 mm 2,0 UV-I 680 W/m 1,5 C 19,0 C 7,9 km/h (2 Bft) 0,00 %
21.04.2015 17:15 19,4 C 28 % 1020,4 hPa 0,0 l/m 14,8 km/h (3 Bft) SW 232 15 min 0,000 mm 1,0 UV-I 634 W/m 0,4 C 16,6 C 19,8 km/h (3 Bft) 0,00 %
21.04.2015 17:30 19,5 C 29 % 1020,2 hPa 0,0 l/m 10,8 km/h (2 Bft) W-NW 290 15 min 0,000 mm 1,0 UV-I 633 W/m 1,0 C 17,8 C 15,8 km/h (3 Bft) 0,00 %
21.04.2015 17:45 19,5 C 28 % 1020,2 hPa 0,0 l/m 6,8 km/h (2 Bft) N 357 15 min 0,000 mm 1,0 UV-I 598 W/m 0,5 C 19,3 C 11,9 km/h (2 Bft) 0,00 %
21.04.2015 18:00 19,5 C 24 % 1020,1 hPa 0,0 l/m 11,9 km/h (2 Bft) O-NO 78 15 min 0,000 mm 1,0 UV-I 583 W/m -1,6 C 17,5 C 19,8 km/h (3 Bft) 0,00 %
21.04.2015 18:15 19,5 C 25 % 1020,0 hPa 0,0 l/m 9,0 km/h (2 Bft) W-SW 256 15 min 0,000 mm 1,0 UV-I 542 W/m -1,0 C 18,4 C 15,8 km/h (3 Bft) 0,00 %
21.04.2015 18:30 19,0 C 26 % 1020,3 hPa 0,0 l/m 7,9 km/h (2 Bft) W-SW 256 15 min 0,000 mm 1,0 UV-I 496 W/m -0,9 C 18,3 C 11,9 km/h (2 Bft) 0,00 %
21.04.2015 18:45 18,6 C 27 % 1020,5 hPa 0,0 l/m 7,9 km/h (2 Bft) W-SW 250 15 min 0,000 mm 1,0 UV-I 428 W/m -0,8 C 17,9 C 11,9 km/h (2 Bft) 0,00 %
21.04.2015 19:00 18,1 C 32 % 1020,7 hPa 0,0 l/m 11,9 km/h (2 Bft) SW 232 15 min 0,000 mm 1,0 UV-I 345 W/m 1,2 C 15,9 C 15,8 km/h (3 Bft) 0,00 %
21.04.2015 19:15 17,7 C 32 % 1020,9 hPa 0,0 l/m 7,2 km/h (2 Bft) SW 221 15 min 0,000 mm 0,0 UV-I 254 W/m 0,8 C 17,3 C 7,9 km/h (2 Bft) 0,00 %
21.04.2015 19:30 17,2 C 31 % 1021,2 hPa 0,0 l/m 5,8 km/h (2 Bft) S-SW 208 15 min 0,000 mm 0,0 UV-I 87 W/m -0,1 C 17,2 C 7,9 km/h (2 Bft) 0,00 %
21.04.2015 19:45 16,4 C 35 % 1021,5 hPa 0,0 l/m 4,0 km/h (1 Bft) W-SW 252 15 min 0,000 mm 0,0 UV-I 22 W/m 0,9 C 16,4 C 7,9 km/h (2 Bft) 0,00 %
21.04.2015 20:00 15,7 C 39 % 1021,8 hPa 0,0 l/m 5,4 km/h (1 Bft) SW 231 0 min 0,000 mm 0,0 UV-I 5 W/m 1,8 C 15,7 C 7,9 km/h (2 Bft) 0,00 %
21.04.2015 20:15 15,2 C 40 % 1022,0 hPa 0,0 l/m 7,2 km/h (2 Bft) SW 235 0 min 0,000 mm 0,0 UV-I 0 W/m 1,7 C 14,8 C 11,9 km/h (2 Bft) 0,00 %
21.04.2015 20:30 14,7 C 43 % 1022,3 hPa 0,0 l/m 0,0 km/h (0 Bft) O-SO 123 0 min 0,000 mm 0,0 UV-I 0 W/m 2,3 C 14,7 C 0,0 km/h (0 Bft) 0,00 %
21.04.2015 20:45 14,1 C 45 % 1022,6 hPa 0,0 l/m 0,0 km/h (0 Bft) N 359 0 min 0,000 mm 0,0 UV-I 0 W/m 2,4 C 14,1 C 0,0 km/h (0 Bft) 0,00 %
21.04.2015 21:00 13,8 C 46 % 1023,0 hPa 0,0 l/m 0,7 km/h (0 Bft) O-SO 121 0 min 0,000 mm 0,0 UV-I 0 W/m 2,4 C 13,8 C 4,0 km/h (1 Bft) 0,00 %
21.04.2015 21:15 13,7 C 48 % 1023,3 hPa 0,0 l/m 0,0 km/h (0 Bft) S 183 0 min 0,000 mm 0,0 UV-I 0 W/m 2,9 C 13,7 C 0,0 km/h (0 Bft) 0,00 %
21.04.2015 21:30 13,2 C 51 % 1023,6 hPa 0,0 l/m 0,0 km/h (0 Bft) S 185 0 min 0,000 mm 0,0 UV-I 0 W/m 3,3 C 13,2 C 0,0 km/h (0 Bft) 0,00 %
21.04.2015 21:45 12,9 C 49 % 1023,8 hPa 0,0 l/m 0,0 km/h (0 Bft) N-NW 333 0 min 0,000 mm 0,0 UV-I 0 W/m 2,5 C 12,9 C 0,0 km/h (0 Bft) 0,00 %
21.04.2015 22:00 12,7 C 50 % 1024,0 hPa 0,0 l/m 0,0 km/h (0 Bft) S 183 0 min 0,000 mm 0,0 UV-I 0 W/m 2,6 C 12,7 C 0,0 km/h (0 Bft) 0,00 %
21.04.2015 22:15 12,8 C 51 % 1024,2 hPa 0,0 l/m 0,4 km/h (0 Bft) SW 223 0 min 0,000 mm 0,0 UV-I 0 W/m 2,9 C 12,8 C 4,0 km/h (1 Bft) 0,00 %
21.04.2015 22:30 12,0 C 54 % 1024,3 hPa 0,0 l/m 0,0 km/h (0 Bft) S 169 0 min 0,000 mm 0,0 UV-I 0 W/m 3,0 C 12,0 C 0,0 km/h (0 Bft) 0,00 %
21.04.2015 22:45 11,8 C 54 % 1024,2 hPa 0,0 l/m 0,0 km/h (0 Bft) S-SO 158 0 min 0,000 mm 0,0 UV-I 0 W/m 2,8 C 11,8 C 0,0 km/h (0 Bft) 0,00 %
21.04.2015 23:00 11,5 C 56 % 1024,4 hPa 0,0 l/m 0,4 km/h (0 Bft) NO 46 0 min 0,000 mm 0,0 UV-I 0 W/m 3,0 C 11,5 C 4,0 km/h (1 Bft) 0,00 %
21.04.2015 23:15 11,4 C 58 % 1024,6 hPa 0,0 l/m 0,4 km/h (0 Bft) S 182 0 min 0,000 mm 0,0 UV-I 0 W/m 3,4 C 11,4 C 4,0 km/h (1 Bft) 0,00 %
21.04.2015 23:30 11,2 C 58 % 1024,4 hPa 0,0 l/m 0,0 km/h (0 Bft) W-SW 256 0 min 0,000 mm 0,0 UV-I 0 W/m 3,2 C 11,2 C 0,0 km/h (0 Bft) 0,00 %
21.04.2015 23:45 11,0 C 57 % 1024,3 hPa 0,0 l/m 0,0 km/h (0 Bft) SW 234 0 min 0,000 mm 0,0 UV-I 0 W/m 2,8 C 11,0 C 0,0 km/h (0 Bft) 0,00 %
_ Min-Zeit 05:30 18:00 18:15 - 00:00 - - - - - - 18:00 05:30 00:00 00:00
Minimum _ 4,1 C 24 % 1020,0 hPa - 0,0 km/h (0 Bft) - - - - - - -1,6 C 4,1 C 0,0 km/h (0 Bft) 0,00 %
_ Max-Zeit 17:30 05:30 06:30 00:00 14:15 - - 06:15 00:00 13:15 14:45 10:30 17:45 12:15 00:00
Maximum _ 19,5 C 86 % 1027,0 hPa 0,0 l/m 17,3 km/h
W-SW (3 Bft)
- - 15 min 0,000 mm 6,0 UV-I 779 W/m 5,0 C 19,3 C 19,8 km/h
W (3 Bft)
0,00 %
Durchschnitt _ 12,5 C 54 % 1023,6 hPa #0,0 l/m 3,6 km/h (1 Bft) W-SW - #13:45 h #0,000 mm 2,7 UV-I 482 W/m 2,6 C 12,1 C 5,4 km/h (1 Bft) 0,00 %